Time;durP1;ratioP1;P1;durP2;ratioP2;P2;SDS_P1;SDS_P2;PMS_P1;PMS_P2;Temp;Humidity;BMP_temperature;BMP_pressure;BME280_temperature;BME280_humidity;BME280_pressure;Samples;Min_cycle;Max_cycle;Signal;HPM_P1;HPM_P2
2022/12/11 00:00:24;;;;;;;25.27;16.67;;;1.70;89.20;;;;;;5090802;28;20200;-67
2022/12/11 00:02:53;;;;;;;25.55;15.55;;;1.70;89.30;;;;;;5097717;28;20214;-66
2022/12/11 00:05:22;;;;;;;24.15;14.38;;;1.70;89.00;;;;;;5114524;28;20348;-66
2022/12/11 00:07:50;;;;;;;22.20;14.77;;;1.70;89.00;;;;;;5108501;28;20181;-66
2022/12/11 00:10:17;;;;;;;24.55;14.27;;;1.70;88.80;;;;;;5094517;28;20193;-66
2022/12/11 00:12:45;;;;;;;24.58;14.30;;;1.70;88.20;;;;;;5098951;28;20658;-66
2022/12/11 00:15:12;;;;;;;23.83;14.07;;;1.60;87.70;;;;;;5114176;28;20212;-66
2022/12/11 00:17:39;;;;;;;24.35;15.35;;;1.70;87.70;;;;;;5114508;28;20305;-66
2022/12/11 00:20:08;;;;;;;23.30;14.70;;;1.60;87.30;;;;;;5113410;28;20194;-66
2022/12/11 00:22:40;;;;;;;22.05;15.40;;;1.60;87.40;;;;;;5095041;28;20212;-66
2022/12/11 00:25:09;;;;;;;20.50;14.30;;;1.60;87.60;;;;;;5096071;28;20185;-66
2022/12/11 00:27:36;;;;;;;21.45;14.30;;;1.60;87.60;;;;;;5115502;28;20192;-66
2022/12/11 00:30:07;;;;;;;22.58;15.05;;;1.60;87.20;;;;;;5114908;28;20192;-66
2022/12/11 00:32:34;;;;;;;26.33;15.80;;;1.60;87.30;;;;;;5095035;28;20193;-66
2022/12/11 00:35:02;;;;;;;23.27;14.15;;;1.50;87.10;;;;;;5095013;28;20213;-66
2022/12/11 00:37:29;;;;;;;22.52;14.38;;;1.50;87.10;;;;;;5114801;28;20217;-67
2022/12/11 00:39:58;;;;;;;21.48;14.55;;;1.50;87.50;;;;;;5115341;28;20220;-66
2022/12/11 00:42:26;;;;;;;19.35;13.90;;;1.50;87.70;;;;;;5095924;28;20203;-66
2022/12/11 00:44:54;;;;;;;20.75;12.57;;;1.50;87.70;;;;;;5094741;28;20193;-66
2022/12/11 00:47:22;;;;;;;23.75;13.00;;;1.50;87.70;;;;;;5095842;28;20185;-66
2022/12/11 00:49:49;;;;;;;22.58;13.48;;;1.50;87.30;;;;;;5094763;28;20196;-66
2022/12/11 00:52:17;;;;;;;22.42;13.75;;;1.50;87.50;;;;;;5113166;28;20272;-66
2022/12/11 00:54:44;;;;;;;22.92;15.13;;;1.50;88.30;;;;;;5114898;28;20273;-67
2022/12/11 00:57:13;;;;;;;20.98;14.00;;;1.50;87.10;;;;;;5097031;28;20300;-66
2022/12/11 00:59:41;;;;;;;23.27;13.75;;;1.50;87.20;;;;;;5094602;28;20211;-67
2022/12/11 01:02:08;;;;;;;23.25;14.43;;;1.50;87.30;;;;;;5110696;28;20188;-66
2022/12/11 01:04:36;;;;;;;17.17;12.00;;;1.40;87.10;;;;;;5114637;28;20262;-66
2022/12/11 01:07:03;;;;;;;24.58;14.40;;;1.40;86.80;;;;;;5098800;28;20215;-66
2022/12/11 01:12:17;;;;;;;18.05;13.18;;;1.40;86.50;;;;;;5095488;28;20199;-66
2022/12/11 01:14:44;;;;;;;23.92;15.07;;;1.40;86.50;;;;;;5093753;28;20235;-66
2022/12/11 01:17:11;;;;;;;23.58;13.43;;;1.40;86.30;;;;;;5111865;28;20185;-66
2022/12/11 01:19:39;;;;;;;22.25;13.27;;;1.40;86.40;;;;;;5114540;28;20207;-66
2022/12/11 01:22:06;;;;;;;25.20;14.55;;;1.30;86.20;;;;;;5097376;28;20219;-66
2022/12/11 01:24:34;;;;;;;22.25;14.05;;;1.30;86.40;;;;;;5094892;28;20262;-66
2022/12/11 01:27:01;;;;;;;23.17;15.88;;;1.30;86.60;;;;;;5113756;28;20181;-66
2022/12/11 01:29:30;;;;;;;24.77;14.80;;;1.30;86.50;;;;;;5114739;28;20601;-66
2022/12/11 01:31:57;;;;;;;26.83;16.42;;;1.30;86.20;;;;;;5095147;28;20561;-66
2022/12/11 01:34:24;;;;;;;19.85;13.85;;;1.30;86.70;;;;;;5093869;28;20710;-66
2022/12/11 01:36:53;;;;;;;22.95;13.60;;;1.30;86.60;;;;;;5110913;28;20245;-66
2022/12/11 01:39:20;;;;;;;25.73;13.23;;;1.30;86.10;;;;;;5114131;28;20193;-65
2022/12/11 01:41:47;;;;;;;24.08;15.13;;;1.20;86.40;;;;;;5097863;28;20224;-66
2022/12/11 01:44:53;;;;;;;28.90;18.63;;;1.20;86.70;;;;;;5094013;28;20247;-66
2022/12/11 01:47:21;;;;;;;25.13;15.20;;;1.20;87.00;;;;;;5093141;28;20220;-67
2022/12/11 01:49:49;;;;;;;20.25;14.18;;;1.20;87.00;;;;;;5114053;28;20210;-66
2022/12/11 01:52:20;;;;;;;23.42;14.02;;;1.20;86.70;;;;;;5094617;28;20275;-66
2022/12/11 01:54:50;;;;;;;21.27;14.00;;;1.20;86.20;;;;;;5093695;28;20223;-66
2022/12/11 01:57:17;;;;;;;25.90;16.98;;;1.20;86.10;;;;;;5093954;28;20196;-66
2022/12/11 01:59:46;;;;;;;24.80;15.70;;;1.20;86.50;;;;;;5093505;28;20659;-66
2022/12/11 02:02:19;;;;;;;23.50;15.02;;;1.10;86.80;;;;;;5094363;28;20195;-66
2022/12/11 02:04:49;;;;;;;22.85;13.80;;;1.10;87.00;;;;;;5093209;28;20225;-66
2022/12/11 02:07:17;;;;;;;24.55;15.60;;;1.10;87.00;;;;;;5093173;28;20220;-66
2022/12/11 02:09:46;;;;;;;26.52;15.07;;;1.10;86.60;;;;;;5093403;28;20229;-66
2022/12/11 02:12:24;;;;;;;24.67;14.10;;;1.00;86.50;;;;;;5112210;28;20185;-66
2022/12/11 02:15:00;;;;;;;28.35;15.95;;;1.00;86.70;;;;;;5113556;28;20227;-66
2022/12/11 02:17:37;;;;;;;22.65;13.55;;;0.90;86.90;;;;;;5093354;28;20651;-66
2022/12/11 02:20:13;;;;;;;20.83;13.98;;;0.90;87.50;;;;;;5093044;28;20200;-66
2022/12/11 02:23:14;;;;;;;27.23;15.43;;;0.90;87.10;;;;;;5093041;28;20193;-66
2022/12/11 02:25:51;;;;;;;25.83;13.52;;;0.80;86.50;;;;;;5098241;28;20621;-66
2022/12/11 02:28:25;;;;;;;22.77;13.15;;;0.70;86.30;;;;;;5113692;28;20611;-66
2022/12/11 02:30:59;;;;;;;21.15;13.80;;;0.70;87.00;;;;;;5111958;28;20191;-66
2022/12/11 02:33:34;;;;;;;22.23;14.77;;;0.70;87.30;;;;;;5113423;28;20228;-66
2022/12/11 02:36:03;;;;;;;19.80;13.35;;;0.70;87.30;;;;;;5111156;28;20214;-66
2022/12/11 02:38:35;;;;;;;22.50;13.73;;;0.70;87.20;;;;;;5113195;28;20184;-66
2022/12/11 02:41:04;;;;;;;22.90;13.80;;;0.80;87.60;;;;;;5104239;28;20238;-66
2022/12/11 02:43:36;;;;;;;21.83;14.15;;;0.80;87.60;;;;;;5092720;28;20280;-66
2022/12/11 02:46:06;;;;;;;24.48;13.18;;;0.80;87.90;;;;;;5099157;28;20261;-66
2022/12/11 02:48:35;;;;;;;19.42;13.13;;;0.80;87.50;;;;;;5112999;28;20192;-66
2022/12/11 02:51:06;;;;;;;22.00;13.65;;;0.80;87.90;;;;;;5105211;28;20922;-66
2022/12/11 02:53:37;;;;;;;18.38;13.05;;;0.80;87.20;;;;;;5092701;28;20219;-66
2022/12/11 02:56:11;;;;;;;23.08;14.32;;;0.90;87.90;;;;;;5100111;28;20216;-66
2022/12/11 02:58:46;;;;;;;21.25;13.05;;;0.90;88.10;;;;;;5113198;28;20288;-66
2022/12/11 03:01:14;;;;;;;22.25;13.95;;;0.90;87.90;;;;;;5104115;28;20188;-65
2022/12/11 03:03:41;;;;;;;22.60;13.55;;;1.00;88.10;;;;;;5092288;28;20224;-67
2022/12/11 03:06:13;;;;;;;20.27;12.43;;;1.00;87.90;;;;;;5095052;28;20189;-66
2022/12/11 03:08:41;;;;;;;24.20;11.82;;;1.00;87.50;;;;;;5100520;28;20181;-66
2022/12/11 03:11:11;;;;;;;21.33;12.70;;;1.10;87.00;;;;;;5092189;28;20208;-66
2022/12/11 03:13:42;;;;;;;19.88;12.05;;;1.10;86.70;;;;;;5098247;28;20207;-66
2022/12/11 03:16:16;;;;;;;20.15;13.35;;;1.10;86.70;;;;;;5112763;28;20212;-66
2022/12/11 03:18:52;;;;;;;20.48;13.90;;;1.10;86.20;;;;;;5110801;28;20179;-66
2022/12/11 03:21:24;;;;;;;20.40;12.60;;;1.10;86.30;;;;;;5112673;28;20238;-66
2022/12/11 03:24:00;;;;;;;16.75;12.43;;;1.10;86.20;;;;;;5105232;28;20620;-66
2022/12/11 03:26:30;;;;;;;21.92;13.32;;;1.10;86.10;;;;;;5092089;28;20274;-66
2022/12/11 03:29:01;;;;;;;20.10;12.95;;;1.20;85.70;;;;;;5098391;28;20184;-66
2022/12/11 03:31:31;;;;;;;21.45;12.50;;;1.20;85.60;;;;;;5112607;28;20279;-66
2022/12/11 03:34:04;;;;;;;20.63;14.23;;;1.20;85.70;;;;;;5105436;28;20193;-66
2022/12/11 03:36:34;;;;;;;21.90;13.90;;;1.20;85.60;;;;;;5092575;28;20228;-66
2022/12/11 03:39:06;;;;;;;22.15;13.63;;;1.20;85.20;;;;;;5102741;28;20284;-66
2022/12/11 03:41:35;;;;;;;21.52;13.57;;;1.20;85.00;;;;;;5114548;28;20271;-66
2022/12/11 03:44:04;;;;;;;19.58;13.55;;;1.20;85.00;;;;;;5116426;28;20188;-66
2022/12/11 03:46:35;;;;;;;20.38;11.30;;;1.30;85.00;;;;;;5110651;28;20185;-66
2022/12/11 03:49:05;;;;;;;20.25;12.43;;;1.30;84.40;;;;;;5095985;28;20193;-66
2022/12/11 03:51:34;;;;;;;21.70;12.90;;;1.30;84.50;;;;;;5100697;28;20173;-66
2022/12/11 03:54:02;;;;;;;18.25;13.18;;;1.30;84.90;;;;;;5116342;28;20283;-67
2022/12/11 03:56:33;;;;;;;26.50;13.05;;;1.20;84.90;;;;;;5111926;28;20262;-66
2022/12/11 03:59:00;;;;;;;21.25;11.80;;;1.30;84.80;;;;;;5096044;28;20551;-66
2022/12/11 04:01:29;;;;;;;20.15;12.98;;;1.30;84.20;;;;;;5098547;28;20180;-66
2022/12/11 04:03:56;;;;;;;20.75;13.40;;;1.30;84.30;;;;;;5116488;28;20230;-66
2022/12/11 04:06:23;;;;;;;19.95;13.25;;;1.30;84.50;;;;;;5113553;28;20192;-66
2022/12/11 04:08:50;;;;;;;21.13;12.00;;;1.30;84.70;;;;;;5095987;28;20189;-67
2022/12/11 04:11:37;;;;;;;21.92;13.85;;;1.30;84.50;;;;;;5095000;28;20193;-67
2022/12/11 04:16:53;;;;;;;19.77;12.60;;;1.30;85.00;;;;;;5111313;28;20188;-66
2022/12/11 04:24:54;;;;;;;20.50;12.85;;;1.20;84.40;;;;;;5115228;28;20203;-67
2022/12/11 04:30:20;;;;;;;22.48;13.45;;;1.20;85.00;;;;;;5033144;28;20187;-66
2022/12/11 04:32:49;;;;;;;23.27;15.32;;;1.20;85.60;;;;;;5082437;28;20631;-66
2022/12/11 04:35:17;;;;;;;20.45;12.00;;;1.20;85.60;;;;;;5095013;28;20270;-67
2022/12/11 04:37:44;;;;;;;20.15;13.13;;;1.20;85.60;;;;;;5107879;28;20225;-66
2022/12/11 04:40:14;;;;;;;22.70;13.70;;;1.20;85.80;;;;;;5115828;28;20192;-66
2022/12/11 04:42:42;;;;;;;21.42;14.52;;;1.20;86.00;;;;;;5104030;28;20188;-66
2022/12/11 04:45:11;;;;;;;22.10;13.43;;;1.20;86.00;;;;;;5095660;28;20282;-66
2022/12/11 04:47:39;;;;;;;20.67;14.00;;;1.20;85.60;;;;;;5105685;28;20570;-67
2022/12/11 04:50:11;;;;;;;23.33;13.77;;;1.20;85.80;;;;;;5114814;28;20192;-67
2022/12/11 04:52:38;;;;;;;22.33;14.50;;;1.20;85.90;;;;;;5105113;28;20185;-66
2022/12/11 04:55:07;;;;;;;20.63;14.77;;;1.20;85.80;;;;;;5094792;28;20217;-66
2022/12/11 04:57:35;;;;;;;24.95;15.75;;;1.20;85.60;;;;;;5106580;28;20184;-66
2022/12/11 05:00:03;;;;;;;22.90;13.95;;;1.20;85.80;;;;;;5115415;28;20192;-67
2022/12/11 05:02:30;;;;;;;21.40;12.40;;;1.20;85.80;;;;;;5103604;28;20193;-66
2022/12/11 05:04:58;;;;;;;22.95;14.13;;;1.20;86.00;;;;;;5094799;28;20232;-66
2022/12/11 05:07:27;;;;;;;17.85;11.57;;;1.20;86.00;;;;;;5104607;28;20233;-67
2022/12/11 05:09:54;;;;;;;22.70;13.65;;;1.20;85.70;;;;;;5114798;28;20195;-67
2022/12/11 05:12:22;;;;;;;19.90;12.57;;;1.20;85.30;;;;;;5106169;28;20185;-66
2022/12/11 05:14:52;;;;;;;21.02;12.88;;;1.20;84.80;;;;;;5094714;28;20246;-66
2022/12/11 05:17:20;;;;;;;21.90;12.13;;;1.20;84.70;;;;;;5102633;28;20275;-66
2022/12/11 05:19:48;;;;;;;19.02;12.65;;;1.10;84.30;;;;;;5115646;28;20253;-66
2022/12/11 05:22:17;;;;;;;19.08;12.13;;;1.10;84.20;;;;;;5113238;28;20239;-66
2022/12/11 05:24:46;;;;;;;21.50;13.90;;;1.10;83.90;;;;;;5115330;28;20196;-66
2022/12/11 05:27:14;;;;;;;24.92;13.65;;;1.10;84.10;;;;;;5106017;28;20181;-66
2022/12/11 05:29:41;;;;;;;21.27;13.88;;;1.10;84.10;;;;;;5094550;28;20643;-66
2022/12/11 05:32:09;;;;;;;21.67;13.60;;;1.10;84.00;;;;;;5101917;28;20188;-67
2022/12/11 05:34:36;;;;;;;22.08;13.40;;;1.10;83.90;;;;;;5115015;28;20224;-67
2022/12/11 05:37:04;;;;;;;22.80;14.95;;;1.10;83.70;;;;;;5107810;28;20185;-66
2022/12/11 05:39:40;;;;;;;20.83;13.50;;;1.00;83.30;;;;;;5094417;28;20735;-66
2022/12/11 05:42:12;;;;;;;22.55;13.25;;;1.00;83.40;;;;;;5100386;28;20274;-67
2022/12/11 05:44:39;;;;;;;23.15;15.35;;;0.90;83.10;;;;;;5114706;28;20188;-65
2022/12/11 05:47:07;;;;;;;21.50;13.52;;;0.90;83.10;;;;;;5110302;28;20228;-66
2022/12/11 05:49:35;;;;;;;25.25;15.13;;;0.90;83.30;;;;;;5094461;28;20197;-67
2022/12/11 05:52:02;;;;;;;23.27;13.85;;;0.90;83.40;;;;;;5100959;28;20188;-67
2022/12/11 05:54:29;;;;;;;20.10;12.90;;;0.80;83.20;;;;;;5114287;28;20283;-66
2022/12/11 05:56:57;;;;;;;22.27;14.13;;;0.80;83.00;;;;;;5107868;28;20713;-66
2022/12/11 05:59:26;;;;;;;22.30;14.00;;;0.80;83.10;;;;;;5093815;28;20197;-67
2022/12/11 06:01:53;;;;;;;18.58;12.00;;;0.70;82.60;;;;;;5098822;28;20192;-66
2022/12/11 06:04:21;;;;;;;21.75;12.75;;;0.70;82.70;;;;;;5114171;28;20544;-66
2022/12/11 06:06:49;;;;;;;21.83;14.27;;;0.70;82.40;;;;;;5107246;28;20272;-66
2022/12/11 06:09:23;;;;;;;19.17;12.65;;;0.60;82.30;;;;;;5093979;28;20189;-67
2022/12/11 06:11:51;;;;;;;21.48;13.90;;;0.60;82.50;;;;;;5094221;28;20575;-66
2022/12/11 06:14:18;;;;;;;21.13;14.45;;;0.60;82.60;;;;;;5092578;28;20647;-66
2022/12/11 06:16:48;;;;;;;22.95;12.82;;;0.50;82.90;;;;;;5098544;28;20204;-66
2022/12/11 06:19:17;;;;;;;22.52;13.80;;;0.50;82.80;;;;;;5114500;28;20192;-66
2022/12/11 06:21:47;;;;;;;22.35;13.25;;;0.50;82.70;;;;;;5108834;28;20181;-67
2022/12/11 06:24:17;;;;;;;24.73;15.77;;;0.50;82.70;;;;;;5093674;28;20185;-66
2022/12/11 06:26:44;;;;;;;22.52;13.65;;;0.50;82.70;;;;;;5097566;28;20241;-66
2022/12/11 06:29:12;;;;;;;23.05;13.40;;;0.40;82.30;;;;;;5114017;28;20196;-66
2022/12/11 06:31:39;;;;;;;25.33;14.25;;;0.40;82.40;;;;;;5110964;28;20192;-67
2022/12/11 06:34:09;;;;;;;20.80;13.13;;;0.30;82.80;;;;;;5093242;28;20240;-66
2022/12/11 06:36:36;;;;;;;24.60;13.65;;;0.40;83.50;;;;;;5094712;28;20216;-66
2022/12/11 06:39:04;;;;;;;22.67;13.60;;;0.40;83.80;;;;;;5113456;28;20196;-66
2022/12/11 06:41:31;;;;;;;21.02;12.82;;;0.40;83.60;;;;;;5111796;28;20214;-67
2022/12/11 06:43:59;;;;;;;20.92;13.88;;;0.40;83.20;;;;;;5112976;28;20276;-66
2022/12/11 06:46:27;;;;;;;22.15;13.80;;;0.40;83.10;;;;;;5107334;28;20617;-66
2022/12/11 06:48:54;;;;;;;26.58;16.52;;;0.30;82.80;;;;;;5103234;28;20252;-66
2022/12/11 06:51:24;;;;;;;29.60;17.15;;;0.30;82.40;;;;;;5113340;28;20642;-66
2022/12/11 06:53:52;;;;;;;21.52;14.68;;;0.30;82.40;;;;;;5113266;28;20188;-66
2022/12/11 06:56:21;;;;;;;22.15;14.70;;;0.30;82.90;;;;;;5109990;28;20689;-66
2022/12/11 06:58:48;;;;;;;22.23;14.15;;;0.30;83.40;;;;;;5104410;28;20225;-66
2022/12/11 07:01:18;;;;;;;23.65;13.57;;;0.30;83.10;;;;;;5093065;28;20242;-67
2022/12/11 07:03:46;;;;;;;21.98;12.65;;;0.30;83.70;;;;;;5099177;28;20221;-66
2022/12/11 07:06:14;;;;;;;17.70;12.70;;;0.30;82.70;;;;;;5100769;28;20639;-66
2022/12/11 07:08:43;;;;;;;22.02;12.95;;;0.30;82.60;;;;;;5098956;28;20224;-66
2022/12/11 07:11:12;;;;;;;18.90;11.88;;;0.40;82.40;;;;;;5098903;28;20593;-67
2022/12/11 07:13:40;;;;;;;20.52;11.85;;;0.40;82.20;;;;;;5097462;28;20197;-67
2022/12/11 07:16:10;;;;;;;18.95;10.70;;;0.40;82.30;;;;;;5098396;28;20289;-66
2022/12/11 07:18:39;;;;;;;17.67;11.40;;;0.40;82.00;;;;;;5101000;28;20203;-66
2022/12/11 07:21:08;;;;;;;19.35;11.38;;;0.40;81.60;;;;;;5098434;28;20291;-66
2022/12/11 07:23:35;;;;;;;15.05;11.05;;;0.50;81.00;;;;;;5098487;28;20232;-66
2022/12/11 07:26:08;;;;;;;19.42;12.18;;;0.50;80.90;;;;;;5100547;28;20203;-66
2022/12/11 07:28:36;;;;;;;18.10;11.35;;;0.50;80.60;;;;;;5098570;28;20281;-66
2022/12/11 07:31:06;;;;;;;23.45;11.95;;;0.50;80.80;;;;;;5096953;28;20184;-66
2022/12/11 07:33:36;;;;;;;20.58;11.70;;;0.50;80.60;;;;;;5112482;28;20196;-66
2022/12/11 07:36:09;;;;;;;16.92;10.95;;;0.50;80.60;;;;;;5110773;28;20299;-66
2022/12/11 07:38:37;;;;;;;16.85;10.48;;;0.50;80.10;;;;;;5099626;28;20181;-66
2022/12/11 07:41:08;;;;;;;18.40;11.18;;;0.50;79.60;;;;;;5090998;28;20272;-66
2022/12/11 07:43:36;;;;;;;12.40;9.20;;;0.50;79.90;;;;;;5092079;28;20280;-66
2022/12/11 07:46:05;;;;;;;12.45;8.90;;;0.50;80.10;;;;;;5108625;28;20219;-67
2022/12/11 07:48:41;;;;;;;14.23;9.25;;;0.50;80.10;;;;;;5112333;28;20608;-67
2022/12/11 07:51:09;;;;;;;12.98;8.68;;;0.60;80.10;;;;;;5094128;28;20686;-67
2022/12/11 07:53:37;;;;;;;13.75;8.68;;;0.60;80.00;;;;;;5105713;28;20199;-67
2022/12/11 07:56:07;;;;;;;12.88;7.75;;;0.60;79.60;;;;;;5094882;28;20689;-67
2022/12/11 07:58:35;;;;;;;12.55;7.75;;;0.70;79.10;;;;;;5091398;28;20208;-68
2022/12/11 08:01:05;;;;;;;11.60;7.45;;;0.60;79.20;;;;;;5091377;28;20193;-68
2022/12/11 08:03:33;;;;;;;11.63;7.88;;;0.60;79.10;;;;;;5101370;28;20228;-67
2022/12/11 08:06:05;;;;;;;12.57;8.90;;;0.70;79.30;;;;;;5113336;28;20196;-67
2022/12/11 08:08:40;;;;;;;13.13;7.72;;;0.70;79.40;;;;;;5092093;28;20930;-67
2022/12/11 08:11:15;;;;;;;11.98;6.90;;;0.80;79.20;;;;;;5092038;28;20271;-67
2022/12/11 08:13:46;;;;;;;11.80;7.35;;;0.90;78.00;;;;;;5112642;28;20249;-68
2022/12/11 08:16:15;;;;;;;13.55;7.93;;;0.90;78.20;;;;;;5112398;28;20204;-65
2022/12/11 08:18:44;;;;;;;9.80;7.40;;;1.00;77.70;;;;;;5092239;28;20640;-67
2022/12/11 08:21:13;;;;;;;10.88;7.22;;;1.10;77.50;;;;;;5089961;28;20185;-67
2022/12/11 08:23:44;;;;;;;14.40;9.02;;;1.00;75.40;;;;;;5092409;28;20276;-67
2022/12/11 08:26:17;;;;;;;12.57;8.60;;;1.00;75.50;;;;;;5095630;28;20226;-66
2022/12/11 08:28:47;;;;;;;16.90;10.40;;;1.10;73.50;;;;;;5106334;28;20220;-67
2022/12/11 08:31:16;;;;;;;15.35;9.70;;;1.10;73.70;;;;;;5114486;28;20276;-67
2022/12/11 08:33:47;;;;;;;13.75;8.60;;;1.20;74.30;;;;;;5115726;28;20185;-67
2022/12/11 08:36:20;;;;;;;11.85;8.20;;;1.40;74.70;;;;;;5114859;28;20257;-67
2022/12/11 08:38:48;;;;;;;10.10;7.32;;;1.70;74.10;;;;;;5102065;28;20285;-67
2022/12/11 08:41:20;;;;;;;10.23;5.90;;;2.00;74.10;;;;;;5111979;28;20181;-67
2022/12/11 08:43:48;;;;;;;16.95;12.10;;;2.50;72.80;;;;;;5094901;28;20674;-66
2022/12/11 08:46:16;;;;;;;19.15;13.27;;;3.10;66.40;;;;;;5095322;28;20192;-67
2022/12/11 08:48:47;;;;;;;35.72;22.35;;;3.60;67.70;;;;;;5110703;28;20639;-67
2022/12/11 08:51:16;;;;;;;12.05;8.02;;;3.80;64.30;;;;;;5105273;28;20538;-67
2022/12/11 08:53:44;;;;;;;10.85;8.57;;;3.70;58.20;;;;;;5113640;28;20216;-67
2022/12/11 08:56:13;;;;;;;12.48;8.20;;;3.30;58.80;;;;;;5113859;28;20208;-67
2022/12/11 08:58:43;;;;;;;18.40;11.43;;;3.10;58.90;;;;;;5100583;28;20181;-67
2022/12/11 09:01:16;;;;;;;12.32;9.38;;;2.70;60.00;;;;;;5095033;28;20189;-66
2022/12/11 09:03:46;;;;;;;12.65;8.85;;;2.60;62.70;;;;;;5094656;28;20225;-66
2022/12/11 09:06:16;;;;;;;15.93;9.70;;;2.70;61.50;;;;;;5104065;28;20192;-66
2022/12/11 09:08:45;;;;;;;14.93;10.30;;;2.70;62.60;;;;;;5113268;28;20198;-66
2022/12/11 09:11:15;;;;;;;14.23;9.85;;;2.90;62.80;;;;;;5115952;28;20211;-66
2022/12/11 09:13:44;;;;;;;19.98;12.27;;;3.00;62.60;;;;;;5111364;28;20182;-66
2022/12/11 09:16:14;;;;;;;27.73;15.07;;;3.30;60.70;;;;;;5094946;28;20228;-66
2022/12/11 09:18:41;;;;;;;19.33;11.93;;;3.50;61.60;;;;;;5097107;28;20185;-66
2022/12/11 09:21:12;;;;;;;14.90;10.05;;;3.60;61.30;;;;;;5113913;28;20184;-67
2022/12/11 09:23:40;;;;;;;21.65;12.55;;;3.50;59.20;;;;;;5112033;28;20180;-66
2022/12/11 09:26:09;;;;;;;20.15;13.25;;;3.60;60.10;;;;;;5094673;28;20193;-66
2022/12/11 09:28:38;;;;;;;17.23;12.43;;;3.80;59.90;;;;;;5096896;28;20268;-66
2022/12/11 09:31:10;;;;;;;18.92;12.40;;;3.90;59.40;;;;;;5114676;28;20192;-66
2022/12/11 09:33:38;;;;;;;19.48;10.18;;;3.80;59.20;;;;;;5112217;28;20196;-66
2022/12/11 09:36:09;;;;;;;27.55;14.20;;;3.60;58.70;;;;;;5093945;28;20192;-66
2022/12/11 09:38:36;;;;;;;16.85;10.02;;;3.60;59.80;;;;;;5095360;28;20276;-67
2022/12/11 09:41:26;;;;;;;14.95;10.48;;;3.70;59.10;;;;;;5093685;28;20670;-66
2022/12/11 09:44:02;;;;;;;14.68;8.52;;;3.70;58.50;;;;;;5096953;28;20183;-67
2022/12/11 09:46:36;;;;;;;30.55;15.95;;;3.70;59.30;;;;;;5114944;28;20192;-67
2022/12/11 09:49:10;;;;;;;25.20;14.27;;;4.20;59.40;;;;;;5112435;28;20199;-67
2022/12/11 09:51:54;;;;;;;22.77;13.82;;;5.00;61.10;;;;;;5114237;28;20195;-67
2022/12/11 09:54:21;;;;;;;18.77;12.90;;;5.90;57.90;;;;;;5100678;28;20189;-66
2022/12/11 09:56:57;;;;;;;21.98;14.70;;;6.30;54.40;;;;;;5092654;28;20235;-66
2022/12/11 09:59:30;;;;;;;18.52;12.88;;;6.50;53.70;;;;;;5093329;28;20584;-66
2022/12/11 10:02:12;;;;;;;17.02;11.85;;;6.80;54.00;;;;;;5088787;28;20196;-66
2022/12/11 10:04:50;;;;;;;20.23;13.57;;;7.40;54.60;;;;;;5091896;28;20248;-67
2022/12/11 10:07:32;;;;;;;17.15;12.10;;;7.70;51.10;;;;;;5091859;28;20218;-67
2022/12/11 10:10:03;;;;;;;16.58;11.18;;;8.00;50.10;;;;;;5092169;28;20242;-68
2022/12/11 10:12:39;;;;;;;29.58;19.38;;;8.20;49.50;;;;;;5092540;28;20636;-66
2022/12/11 10:15:29;;;;;;;31.90;20.33;;;8.50;47.70;;;;;;5092117;28;20189;-67
2022/12/11 10:18:00;;;;;;;26.83;16.25;;;8.80;46.80;;;;;;5091601;28;20225;-66
2022/12/11 10:20:33;;;;;;;19.25;13.05;;;9.00;46.10;;;;;;5091892;28;20181;-67
2022/12/11 10:23:02;;;;;;;27.27;16.33;;;9.30;46.40;;;;;;5091879;28;20219;-66
2022/12/11 10:25:32;;;;;;;15.70;11.43;;;9.50;44.60;;;;;;5092321;28;20192;-67
2022/12/11 10:28:08;;;;;;;14.32;10.20;;;9.70;42.90;;;;;;5092159;28;20186;-66
2022/12/11 10:30:39;;;;;;;11.50;8.43;;;10.00;42.20;;;;;;5095405;28;20618;-66
2022/12/11 10:33:19;;;;;;;10.98;8.93;;;10.10;40.20;;;;;;5110708;28;20184;-66
2022/12/11 10:35:51;;;;;;;13.57;9.15;;;10.00;40.00;;;;;;5110487;28;20554;-67
2022/12/11 10:38:26;;;;;;;15.07;10.43;;;10.00;38.70;;;;;;5110170;28;20303;-66
2022/12/11 10:40:57;;;;;;;13.60;8.98;;;10.00;39.00;;;;;;5093975;28;21289;-66
2022/12/11 10:43:34;;;;;;;12.35;8.70;;;10.00;38.40;;;;;;5092170;28;20185;-66
2022/12/11 10:46:01;;;;;;;12.93;9.73;;;9.80;39.00;;;;;;5109641;28;20193;-66
2022/12/11 10:48:30;;;;;;;12.75;10.00;;;9.50;39.40;;;;;;5107611;28;20249;-67
2022/12/11 10:51:01;;;;;;;11.05;9.00;;;9.60;39.90;;;;;;5093171;28;20265;-67
2022/12/11 10:53:29;;;;;;;14.32;9.65;;;9.60;40.00;;;;;;5091863;28;20201;-66
2022/12/11 10:55:58;;;;;;;11.63;8.32;;;9.80;38.80;;;;;;5092392;28;20197;-66
2022/12/11 10:58:30;;;;;;;13.55;9.48;;;9.60;39.20;;;;;;5093723;28;20219;-66
2022/12/11 11:01:08;;;;;;;13.18;8.75;;;9.60;39.20;;;;;;5091205;28;20188;-66
2022/12/11 11:03:55;;;;;;;12.70;8.98;;;9.40;39.10;;;;;;5109580;28;20208;-67
2022/12/11 11:06:23;;;;;;;15.48;12.82;;;9.50;39.60;;;;;;5109627;28;20229;-66
2022/12/11 11:08:56;;;;;;;17.10;12.93;;;9.60;39.50;;;;;;5108940;28;20188;-66
2022/12/11 11:11:31;;;;;;;13.85;10.50;;;9.50;39.40;;;;;;5103311;28;20189;-66
2022/12/11 11:14:13;;;;;;;13.07;9.40;;;9.50;38.60;;;;;;5102720;28;20188;-66
2022/12/11 11:16:42;;;;;;;15.90;10.38;;;9.80;38.60;;;;;;5109659;28;20265;-67
2022/12/11 11:19:30;;;;;;;12.20;9.63;;;9.80;38.00;;;;;;5105305;28;20250;-66
2022/12/11 11:22:02;;;;;;;13.13;9.48;;;10.20;37.10;;;;;;5091864;28;20181;-66
2022/12/11 11:24:35;;;;;;;10.90;8.50;;;10.30;35.90;;;;;;5096422;28;20598;-66
2022/12/11 11:27:03;;;;;;;11.43;8.02;;;10.60;36.10;;;;;;5099998;28;20200;-67
2022/12/11 11:29:34;;;;;;;11.95;8.23;;;11.00;33.80;;;;;;5091347;28;20183;-66
2022/12/11 11:32:14;;;;;;;10.48;8.43;;;10.70;33.30;;;;;;5090725;28;20203;-66
2022/12/11 11:34:43;;;;;;;10.05;8.13;;;10.20;33.60;;;;;;5108018;28;20549;-66
2022/12/11 11:37:24;;;;;;;13.07;8.75;;;10.10;33.40;;;;;;5109607;28;20234;-66
2022/12/11 11:40:02;;;;;;;13.48;8.30;;;9.90;34.60;;;;;;5091890;28;20585;-66
2022/12/11 11:42:47;;;;;;;14.23;9.70;;;9.70;35.00;;;;;;5091903;28;20193;-66
2022/12/11 11:45:20;;;;;;;11.40;7.53;;;9.50;35.40;;;;;;5096197;28;20182;-66
2022/12/11 11:47:57;;;;;;;11.20;8.63;;;9.30;35.90;;;;;;5106022;28;20239;-66
2022/12/11 11:50:31;;;;;;;10.88;8.20;;;9.40;35.60;;;;;;5092111;28;20181;-66
2022/12/11 11:53:04;;;;;;;11.48;8.05;;;9.20;35.50;;;;;;5092013;28;20201;-66
2022/12/11 11:55:41;;;;;;;11.20;9.15;;;9.00;36.60;;;;;;5093760;28;20274;-66
2022/12/11 11:58:13;;;;;;;12.02;8.27;;;8.60;35.70;;;;;;5103143;28;20216;-66
2022/12/11 12:00:41;;;;;;;10.95;8.02;;;8.70;37.70;;;;;;5114226;28;20642;-67
2022/12/11 12:03:14;;;;;;;12.93;8.50;;;8.70;36.60;;;;;;5095769;28;20196;-64
2022/12/11 12:05:50;;;;;;;10.95;8.13;;;8.50;37.70;;;;;;5095931;28;20197;-64
2022/12/11 12:08:27;;;;;;;11.85;9.02;;;8.60;39.40;;;;;;5100053;28;20263;-64
2022/12/11 12:11:00;;;;;;;12.38;7.50;;;8.50;38.60;;;;;;5095139;28;20378;-65
2022/12/11 12:13:40;;;;;;;11.02;8.35;;;8.30;40.20;;;;;;5095237;28;20185;-65
2022/12/11 12:16:17;;;;;;;9.48;6.45;;;8.40;40.70;;;;;;5094198;28;20188;-65
2022/12/11 12:18:58;;;;;;;13.02;6.70;;;8.50;38.80;;;;;;5094865;28;20285;-64
2022/12/11 12:21:34;;;;;;;13.18;9.38;;;8.40;36.90;;;;;;5097893;28;20203;-65
2022/12/11 12:24:28;;;;;;;16.75;10.55;;;8.50;37.60;;;;;;5095705;28;20597;-64
2022/12/11 12:27:02;;;;;;;16.33;10.57;;;9.10;39.80;;;;;;5094502;28;20201;-65
2022/12/11 12:29:43;;;;;;;14.20;9.13;;;9.70;38.20;;;;;;5108741;28;20190;-64
2022/12/11 12:32:20;;;;;;;11.20;8.20;;;10.00;36.20;;;;;;5100442;28;20281;-65
2022/12/11 12:35:03;;;;;;;10.88;8.43;;;9.90;36.60;;;;;;5095068;28;20200;-65
2022/12/11 12:37:46;;;;;;;9.13;7.00;;;9.70;36.60;;;;;;5094420;28;20571;-65
2022/12/11 12:40:26;;;;;;;11.27;9.15;;;9.30;37.10;;;;;;5098603;28;20226;-65
2022/12/11 12:43:09;;;;;;;13.40;9.75;;;8.70;37.70;;;;;;5112660;28;20185;-64
2022/12/11 12:45:43;;;;;;;11.07;9.45;;;8.50;38.10;;;;;;5112939;28;20242;-64
2022/12/11 12:48:11;;;;;;;11.27;9.38;;;8.00;38.50;;;;;;5095421;28;20616;-64
2022/12/11 12:50:46;;;;;;;12.48;8.00;;;7.70;39.60;;;;;;5095136;28;20628;-64
2022/12/11 12:53:21;;;;;;;10.52;8.65;;;7.30;40.50;;;;;;5094572;28;20192;-64
2022/12/11 12:55:50;;;;;;;10.90;8.52;;;7.10;42.30;;;;;;5094757;28;20665;-65
2022/12/11 12:58:26;;;;;;;10.85;6.70;;;7.00;42.90;;;;;;5094583;28;20216;-64
2022/12/11 13:00:55;;;;;;;7.45;5.13;;;7.00;43.90;;;;;;5094758;28;20196;-64
2022/12/11 13:03:29;;;;;;;6.88;4.45;;;7.10;43.10;;;;;;5094877;28;20239;-64
2022/12/11 13:05:59;;;;;;;5.80;4.50;;;7.10;42.20;;;;;;5094414;28;20231;-64
2022/12/11 13:08:31;;;;;;;6.50;4.65;;;6.90;43.10;;;;;;5095047;28;20193;-64
2022/12/11 13:11:03;;;;;;;6.35;4.07;;;6.90;43.00;;;;;;5094003;28;20636;-64
2022/12/11 13:13:35;;;;;;;9.00;5.13;;;6.60;42.90;;;;;;5111416;28;20642;-64